Time;durP1;ratioP1;P1;durP2;ratioP2;P2;SDS_P1;SDS_P2;PMS_P1;PMS_P2;Temp;Humidity;BMP_temperature;BMP_pressure;BME280_temperature;BME280_humidity;BME280_pressure;Samples;Min_cycle;Max_cycle;Signal;HPM_P1;HPM_P2
2022/07/27 00:00:32;;;;;;;41.75;22.77;;;13.70;99.90;;;;;;5154981;27;20032;-79
2022/07/27 00:02:58;;;;;;;39.28;23.98;;;13.70;99.90;;;;;;5154812;27;20525;-69
2022/07/27 00:05:23;;;;;;;36.33;25.10;;;13.70;99.90;;;;;;5153679;27;20019;-78
2022/07/27 00:07:49;;;;;;;33.15;25.05;;;13.70;99.90;;;;;;5154647;27;20023;-69
2022/07/27 00:10:16;;;;;;;34.20;24.83;;;13.70;99.90;;;;;;5153597;27;20067;-70
2022/07/27 00:12:41;;;;;;;32.60;24.55;;;13.80;99.90;;;;;;5154666;27;20040;-79
2022/07/27 00:15:08;;;;;;;32.83;23.77;;;13.80;99.90;;;;;;5154741;27;20018;-70
2022/07/27 00:17:34;;;;;;;36.25;23.30;;;13.80;99.90;;;;;;5154637;27;20071;-79
2022/07/27 00:20:00;;;;;;;42.35;19.67;;;13.90;99.90;;;;;;5153486;27;20388;-79
2022/07/27 00:22:26;;;;;;;36.55;20.55;;;13.80;99.90;;;;;;5154487;27;20035;-69
2022/07/27 00:24:52;;;;;;;43.60;21.20;;;13.80;99.90;;;;;;5088115;27;20359;-78
2022/07/27 00:27:18;;;;;;;44.08;18.98;;;13.80;99.90;;;;;;5049623;28;20400;-79
2022/07/27 00:29:44;;;;;;;30.38;17.85;;;13.70;99.90;;;;;;5052994;28;20036;-71
2022/07/27 00:32:10;;;;;;;32.10;15.88;;;13.70;99.90;;;;;;5053322;28;20112;-79
2022/07/27 00:34:36;;;;;;;45.03;17.45;;;13.70;99.90;;;;;;5053388;28;20089;-78
2022/07/27 00:37:02;;;;;;;20.13;14.07;;;13.70;99.90;;;;;;5053203;28;20040;-79
2022/07/27 00:39:28;;;;;;;67.57;16.90;;;13.70;99.90;;;;;;5053382;28;20501;-70
2022/07/27 00:41:54;;;;;;;66.35;16.55;;;13.70;99.90;;;;;;5053374;28;20108;-79
2022/07/27 00:44:27;;;;;;;31.88;16.30;;;13.70;99.90;;;;;;5053181;28;20121;-70
2022/07/27 00:46:53;;;;;;;67.80;17.30;;;13.70;99.90;;;;;;5053136;28;20413;-69
2022/07/27 00:49:20;;;;;;;53.28;16.83;;;13.60;99.90;;;;;;5051767;28;20482;-79
2022/07/27 00:51:46;;;;;;;41.33;19.85;;;13.60;99.90;;;;;;5053250;28;20019;-69
2022/07/27 00:54:12;;;;;;;104.63;21.13;;;13.60;99.90;;;;;;5146710;27;20041;-78
2022/07/27 00:56:37;;;;;;;147.27;23.65;;;13.60;99.90;;;;;;5158442;27;20034;-69
2022/07/27 00:59:05;;;;;;;167.63;25.88;;;13.60;99.90;;;;;;5158362;27;20023;-70
2022/07/27 01:01:30;;;;;;;159.30;26.27;;;13.50;99.90;;;;;;5158370;27;20053;-69
2022/07/27 01:03:56;;;;;;;48.55;20.70;;;13.50;99.90;;;;;;5158211;27;20015;-78
2022/07/27 01:06:22;;;;;;;52.95;20.52;;;13.50;99.90;;;;;;5156925;27;20054;-79
2022/07/27 01:08:47;;;;;;;93.85;23.33;;;13.50;99.90;;;;;;5158144;27;20031;-79
2022/07/27 01:11:14;;;;;;;76.15;21.27;;;13.60;99.90;;;;;;5158484;27;20037;-79
2022/07/27 01:13:41;;;;;;;102.65;23.48;;;13.60;99.90;;;;;;5158156;27;20030;-70
2022/07/27 01:16:08;;;;;;;50.10;20.30;;;13.60;99.90;;;;;;5158163;27;20030;-79
2022/07/27 01:18:36;;;;;;;87.30;20.50;;;13.60;99.90;;;;;;5156540;27;20025;-78
2022/07/27 01:21:04;;;;;;;108.72;22.65;;;13.60;99.90;;;;;;5157908;27;20040;-79
2022/07/27 01:23:33;;;;;;;22.15;14.93;;;13.60;99.90;;;;;;5148392;27;20373;-79
2022/07/27 01:26:00;;;;;;;84.13;20.38;;;13.60;99.90;;;;;;5052605;28;20081;-74
2022/07/27 01:28:27;;;;;;;104.03;18.80;;;13.60;99.90;;;;;;5052332;28;20029;-70
2022/07/27 01:30:54;;;;;;;105.93;20.75;;;13.60;99.90;;;;;;5052561;28;20070;-70
2022/07/27 01:33:26;;;;;;;25.50;15.25;;;13.50;99.90;;;;;;5052308;28;20029;-70
2022/07/27 01:35:54;;;;;;;34.13;15.18;;;13.50;99.90;;;;;;5052513;28;20021;-79
2022/07/27 01:38:21;;;;;;;39.45;15.50;;;13.50;99.90;;;;;;5051024;28;20021;-70
2022/07/27 01:40:48;;;;;;;29.42;14.18;;;13.50;99.90;;;;;;5051363;28;20043;-79
2022/07/27 01:43:14;;;;;;;20.55;13.07;;;13.40;99.90;;;;;;5050996;27;20430;-79
2022/07/27 01:45:39;;;;;;;22.55;12.43;;;13.40;99.90;;;;;;5050994;27;20141;-71
2022/07/27 01:48:05;;;;;;;22.77;12.45;;;13.40;99.90;;;;;;5050594;28;20120;-70
2022/07/27 01:50:31;;;;;;;20.27;11.18;;;13.40;99.90;;;;;;5052193;28;20428;-70
2022/07/27 01:52:57;;;;;;;23.67;12.45;;;13.30;99.90;;;;;;5094264;27;20018;-79
2022/07/27 01:55:23;;;;;;;23.55;11.52;;;13.30;99.90;;;;;;5156045;27;20063;-79
2022/07/27 01:57:48;;;;;;;19.65;11.52;;;13.20;99.90;;;;;;5157079;27;20468;-69
2022/07/27 02:00:14;;;;;;;22.65;11.85;;;13.20;99.90;;;;;;5157231;27;20030;-71
2022/07/27 02:02:40;;;;;;;36.28;12.93;;;13.20;99.90;;;;;;5155970;27;20030;-69
2022/07/27 02:05:07;;;;;;;50.35;13.43;;;13.20;99.90;;;;;;5155736;27;20035;-78
2022/07/27 02:07:32;;;;;;;46.78;14.85;;;13.10;99.90;;;;;;5156995;27;20027;-69
2022/07/27 02:09:58;;;;;;;22.63;12.43;;;13.00;99.90;;;;;;5156848;27;20026;-79
2022/07/27 02:12:36;;;;;;;23.30;13.88;;;13.00;99.90;;;;;;5157093;27;20015;-79
2022/07/27 02:15:06;;;;;;;21.65;14.75;;;13.10;99.90;;;;;;5156892;27;20030;-69
2022/07/27 02:17:32;;;;;;;43.17;16.25;;;13.10;99.90;;;;;;5156929;27;20369;-69
2022/07/27 02:19:58;;;;;;;26.92;15.60;;;13.10;99.90;;;;;;5156809;27;20023;-79
2022/07/27 02:22:24;;;;;;;38.78;16.83;;;13.20;99.90;;;;;;5156652;27;20072;-69
2022/07/27 02:24:49;;;;;;;21.33;13.98;;;13.20;99.90;;;;;;5088421;27;20021;-70
2022/07/27 02:27:15;;;;;;;24.25;15.68;;;13.20;99.90;;;;;;5051540;28;20470;-79
2022/07/27 02:29:41;;;;;;;29.60;15.18;;;13.20;99.90;;;;;;5051470;28;20033;-78
2022/07/27 02:32:07;;;;;;;32.03;15.77;;;13.20;99.90;;;;;;5051559;28;20033;-78
2022/07/27 02:34:32;;;;;;;20.48;13.23;;;13.20;99.90;;;;;;5051582;28;20025;-70
2022/07/27 02:36:58;;;;;;;20.70;13.55;;;13.10;99.90;;;;;;5051480;28;20112;-69
2022/07/27 02:39:24;;;;;;;19.98;12.95;;;13.10;99.90;;;;;;5051450;28;20051;-78
2022/07/27 02:41:49;;;;;;;19.58;14.00;;;13.10;99.90;;;;;;5051467;28;20017;-69
2022/07/27 02:44:16;;;;;;;25.42;14.65;;;13.20;99.90;;;;;;5051413;28;20017;-70
2022/07/27 02:46:42;;;;;;;20.92;14.50;;;13.10;99.90;;;;;;5051345;28;20074;-69
2022/07/27 02:49:08;;;;;;;25.88;13.70;;;13.20;99.90;;;;;;5051190;28;20037;-79
2022/07/27 02:51:33;;;;;;;17.65;12.23;;;13.10;99.90;;;;;;5051067;28;20017;-70
2022/07/27 02:53:59;;;;;;;16.23;12.15;;;13.10;99.90;;;;;;5139896;27;20396;-70
2022/07/27 02:56:25;;;;;;;16.40;12.23;;;13.10;99.90;;;;;;5154639;27;20376;-79
2022/07/27 02:58:50;;;;;;;17.42;12.68;;;13.10;99.90;;;;;;5156087;27;20034;-78
2022/07/27 03:01:16;;;;;;;16.70;11.15;;;13.10;99.90;;;;;;5154715;27;20122;-79
2022/07/27 03:03:42;;;;;;;14.38;10.82;;;13.10;99.90;;;;;;5156033;27;20019;-71
2022/07/27 03:06:08;;;;;;;14.70;10.68;;;13.10;99.90;;;;;;5154522;27;20068;-79
2022/07/27 03:08:34;;;;;;;16.55;11.02;;;13.00;99.90;;;;;;5155976;27;20038;-77
2022/07/27 03:11:00;;;;;;;13.27;9.20;;;12.90;99.90;;;;;;5154388;27;20030;-78
2022/07/27 03:13:27;;;;;;;14.75;10.00;;;12.80;99.90;;;;;;5154698;27;20019;-78
2022/07/27 03:15:54;;;;;;;17.85;11.07;;;12.80;99.90;;;;;;5155591;27;20107;-79
2022/07/27 03:18:20;;;;;;;22.95;12.05;;;12.80;99.90;;;;;;5155740;27;20491;-69
2022/07/27 03:20:46;;;;;;;70.88;16.13;;;12.80;99.90;;;;;;5155622;27;20022;-70
2022/07/27 03:23:12;;;;;;;39.85;14.45;;;12.70;99.90;;;;;;5155645;27;20407;-79
2022/07/27 03:25:38;;;;;;;42.00;14.27;;;12.70;99.90;;;;;;5050935;27;20021;-78
2022/07/27 03:28:04;;;;;;;19.95;12.02;;;12.60;99.90;;;;;;5050398;28;20041;-79
2022/07/27 03:30:30;;;;;;;108.45;18.83;;;12.70;99.90;;;;;;5050695;28;20025;-78
2022/07/27 03:32:55;;;;;;;31.65;14.93;;;12.60;99.90;;;;;;5050704;28;20032;-78
2022/07/27 03:35:21;;;;;;;150.60;22.30;;;12.60;99.90;;;;;;5049402;27;20021;-70
2022/07/27 03:37:47;;;;;;;94.03;19.00;;;12.70;99.90;;;;;;5050451;28;20029;-69
2022/07/27 03:40:13;;;;;;;80.05;18.58;;;12.70;99.90;;;;;;5049198;28;20069;-78
2022/07/27 03:42:39;;;;;;;24.52;13.57;;;12.70;99.90;;;;;;5050623;28;20077;-70
2022/07/27 03:45:05;;;;;;;67.45;14.43;;;12.70;99.90;;;;;;5049310;27;20078;-70
2022/07/27 03:47:31;;;;;;;21.05;11.15;;;12.70;99.90;;;;;;5050361;28;20107;-79
2022/07/27 03:49:56;;;;;;;93.85;15.70;;;12.80;99.90;;;;;;5050335;28;20097;-70
2022/07/27 03:52:22;;;;;;;50.22;13.70;;;12.70;99.90;;;;;;5070478;27;20019;-70
2022/07/27 03:54:48;;;;;;;22.65;10.93;;;12.70;99.90;;;;;;5155165;27;20027;-70
2022/07/27 03:57:14;;;;;;;20.13;12.52;;;12.70;99.90;;;;;;5154953;27;20507;-78
2022/07/27 03:59:40;;;;;;;26.15;11.95;;;12.70;99.90;;;;;;5153733;27;20070;-69
2022/07/27 04:02:05;;;;;;;21.55;11.57;;;12.70;99.90;;;;;;5154756;27;20018;-79
2022/07/27 04:04:31;;;;;;;43.88;12.63;;;12.80;99.90;;;;;;5154466;27;20502;-78
2022/07/27 04:06:57;;;;;;;51.88;12.98;;;12.80;99.90;;;;;;5154728;27;20029;-79
2022/07/27 04:09:23;;;;;;;45.53;11.60;;;12.80;99.90;;;;;;5154916;27;20037;-70
2022/07/27 04:11:49;;;;;;;28.35;11.30;;;12.70;99.90;;;;;;5154881;27;20038;-79
2022/07/27 04:14:16;;;;;;;19.63;11.48;;;12.70;99.90;;;;;;5154818;27;20014;-78
2022/07/27 04:16:42;;;;;;;15.50;11.30;;;12.80;99.90;;;;;;5154780;27;20069;-70
2022/07/27 04:19:07;;;;;;;15.05;11.38;;;12.90;99.90;;;;;;5153487;27;20046;-70
2022/07/27 04:21:34;;;;;;;16.70;11.48;;;13.00;99.90;;;;;;5153225;27;20015;-71
2022/07/27 04:24:00;;;;;;;18.52;12.25;;;13.10;99.90;;;;;;5119225;27;20064;-79
2022/07/27 04:26:27;;;;;;;18.42;11.77;;;13.20;99.90;;;;;;5049771;28;20167;-69
2022/07/27 04:28:52;;;;;;;17.45;12.18;;;13.30;99.90;;;;;;5049858;28;20033;-79
2022/07/27 04:31:18;;;;;;;20.13;12.98;;;13.40;99.90;;;;;;5049699;28;20146;-79
2022/07/27 04:33:44;;;;;;;16.92;11.85;;;13.50;99.90;;;;;;5049914;28;20076;-79
2022/07/27 04:36:10;;;;;;;19.63;14.35;;;13.60;99.90;;;;;;5048325;28;20025;-72
2022/07/27 04:38:35;;;;;;;21.70;14.43;;;13.80;99.90;;;;;;5048466;28;20021;-71
2022/07/27 04:41:01;;;;;;;23.55;15.63;;;13.90;99.90;;;;;;5048413;28;20029;-80
2022/07/27 04:43:27;;;;;;;26.85;15.95;;;14.00;99.90;;;;;;5049883;28;20049;-78
2022/07/27 04:45:52;;;;;;;29.02;19.23;;;14.20;99.90;;;;;;5049635;28;20029;-79
2022/07/27 04:48:18;;;;;;;29.25;19.05;;;14.30;99.90;;;;;;5048331;28;20033;-79
2022/07/27 04:50:48;;;;;;;40.42;23.85;;;14.40;99.90;;;;;;5048391;28;20116;-70
2022/07/27 04:53:15;;;;;;;36.35;23.35;;;14.60;99.90;;;;;;5108771;27;20026;-79
2022/07/27 04:55:42;;;;;;;39.97;25.40;;;14.70;99.90;;;;;;5153216;27;20019;-79
2022/07/27 04:58:08;;;;;;;37.10;24.08;;;14.90;99.90;;;;;;5152791;27;20498;-79
2022/07/27 05:00:34;;;;;;;38.13;23.20;;;15.10;99.90;;;;;;5154480;27;20015;-78
2022/07/27 05:03:00;;;;;;;35.90;23.25;;;15.30;99.90;;;;;;5152915;27;20026;-70
2022/07/27 05:05:25;;;;;;;39.63;22.85;;;15.50;99.90;;;;;;5154485;27;20071;-79
2022/07/27 05:07:51;;;;;;;34.78;22.55;;;15.70;99.90;;;;;;5153880;27;20468;-70
2022/07/27 05:10:17;;;;;;;29.42;19.38;;;15.80;99.90;;;;;;5152961;27;20050;-70
2022/07/27 05:12:43;;;;;;;28.38;19.65;;;16.10;99.90;;;;;;5154252;27;20030;-79
2022/07/27 05:15:09;;;;;;;31.67;20.73;;;16.30;99.90;;;;;;5155402;27;20464;-79
2022/07/27 05:17:35;;;;;;;27.55;18.77;;;16.40;99.90;;;;;;5157855;27;20030;-79
2022/07/27 05:20:01;;;;;;;19.05;14.30;;;16.50;99.90;;;;;;5157895;27;20539;-70
2022/07/27 05:22:27;;;;;;;19.33;14.55;;;16.60;99.90;;;;;;5156393;27;20045;-79
2022/07/27 05:24:52;;;;;;;19.30;13.52;;;16.70;99.90;;;;;;5082037;27;20048;-79
2022/07/27 05:27:18;;;;;;;28.15;16.75;;;16.80;99.90;;;;;;5052312;28;20163;-79
2022/07/27 05:29:44;;;;;;;17.98;14.13;;;16.90;99.90;;;;;;5051171;28;20089;-79
2022/07/27 05:32:09;;;;;;;19.40;13.48;;;17.00;99.90;;;;;;5052277;28;20025;-70
2022/07/27 05:34:35;;;;;;;18.05;13.13;;;17.10;99.90;;;;;;5052432;28;20021;-72
2022/07/27 05:37:01;;;;;;;11.98;10.07;;;17.30;99.90;;;;;;5050947;28;20161;-79
2022/07/27 05:39:27;;;;;;;13.70;9.70;;;17.30;99.90;;;;;;5052365;28;20044;-71
2022/07/27 05:41:52;;;;;;;12.85;7.97;;;17.30;99.90;;;;;;5100439;27;20029;-79
2022/07/27 05:44:18;;;;;;;12.73;7.25;;;17.30;99.90;;;;;;5151701;27;20018;-71
2022/07/27 05:46:44;;;;;;;8.23;6.47;;;17.50;99.90;;;;;;5066480;27;20108;-79
2022/07/27 05:49:09;;;;;;;6.35;5.53;;;17.50;99.90;;;;;;5052144;28;20059;-79
2022/07/27 05:51:37;;;;;;;6.53;5.55;;;17.50;99.90;;;;;;5067081;27;20057;-71
2022/07/27 05:54:02;;;;;;;8.80;6.03;;;17.50;99.90;;;;;;5080879;27;20045;-79
2022/07/27 05:56:28;;;;;;;7.95;5.55;;;17.70;99.90;;;;;;5141406;27;20057;-80
2022/07/27 05:58:55;;;;;;;4.75;4.32;;;17.70;99.90;;;;;;5117985;27;20021;-78
2022/07/27 06:01:21;;;;;;;6.93;5.28;;;17.70;99.90;;;;;;5051581;28;20028;-70
2022/07/27 06:03:47;;;;;;;8.63;4.88;;;17.80;99.90;;;;;;5050543;28;20048;-78
2022/07/27 06:08:57;;;;;;;5.97;4.97;;;17.90;99.90;;;;;;5051889;28;20070;-77
2022/07/27 06:11:22;;;;;;;8.25;4.80;;;17.80;99.90;;;;;;5051559;28;20029;-78
2022/07/27 06:13:49;;;;;;;6.10;4.70;;;17.80;99.90;;;;;;5049980;28;20100;-71
2022/07/27 06:16:15;;;;;;;8.30;5.22;;;17.80;99.90;;;;;;5050520;28;20045;-78
2022/07/27 06:18:41;;;;;;;5.97;4.57;;;18.10;99.90;;;;;;5051305;28;20410;-71
2022/07/27 06:21:07;;;;;;;5.25;4.55;;;18.30;99.90;;;;;;5051749;28;20036;-77
2022/07/27 06:23:32;;;;;;;8.55;4.63;;;18.40;99.90;;;;;;5048114;28;20040;-70
2022/07/27 06:25:58;;;;;;;5.30;3.72;;;18.60;99.90;;;;;;5048964;28;20088;-77
2022/07/27 06:28:24;;;;;;;3.90;3.60;;;18.80;99.90;;;;;;5049879;28;20473;-71
2022/07/27 06:30:52;;;;;;;6.05;3.85;;;18.80;99.90;;;;;;5051668;28;20017;-76
2022/07/27 06:33:26;;;;;;;13.00;3.42;;;18.80;99.90;;;;;;5050258;28;20033;-71
2022/07/27 06:35:53;;;;;;;6.03;4.18;;;18.90;99.90;;;;;;5051514;28;20045;-77
2022/07/27 06:38:19;;;;;;;5.80;3.45;;;18.60;99.90;;;;;;5050094;28;20021;-71
2022/07/27 06:40:46;;;;;;;5.05;3.33;;;18.40;99.90;;;;;;5050230;28;20013;-71
2022/07/27 06:43:12;;;;;;;3.90;3.60;;;18.30;99.90;;;;;;5050014;28;20053;-71
2022/07/27 06:45:37;;;;;;;4.88;3.65;;;18.40;99.90;;;;;;5051787;27;20100;-71
2022/07/27 06:48:03;;;;;;;5.85;3.47;;;18.40;99.90;;;;;;5050633;28;20035;-77
2022/07/27 06:50:29;;;;;;;7.20;3.50;;;18.50;99.90;;;;;;5049651;28;20018;-71
2022/07/27 06:52:55;;;;;;;7.38;4.53;;;18.60;99.90;;;;;;5045974;27;20041;-77
2022/07/27 06:55:20;;;;;;;6.25;4.38;;;18.60;99.90;;;;;;5043077;28;20037;-71
2022/07/27 06:57:46;;;;;;;6.07;3.72;;;18.90;99.90;;;;;;5132570;27;20387;-71
2022/07/27 07:00:12;;;;;;;7.30;3.72;;;19.30;99.90;;;;;;5156029;27;20523;-77
2022/07/27 07:02:50;;;;;;;3.42;3.13;;;19.50;99.90;;;;;;5064269;27;20400;-77
2022/07/27 07:05:16;;;;;;;5.38;3.60;;;19.60;99.90;;;;;;5114154;27;20076;-77
2022/07/27 07:07:41;;;;;;;4.13;2.83;;;19.70;99.90;;;;;;5070200;27;20033;-71
2022/07/27 07:10:08;;;;;;;5.05;3.50;;;19.80;99.90;;;;;;5090908;27;20025;-77
2022/07/27 07:12:33;;;;;;;6.47;4.32;;;19.90;99.90;;;;;;5109215;27;20102;-77
2022/07/27 07:14:59;;;;;;;5.85;3.35;;;19.90;99.90;;;;;;5091973;27;20068;-71
2022/07/27 07:17:24;;;;;;;4.40;3.97;;;19.90;99.90;;;;;;5049552;28;20482;-71
2022/07/27 07:19:50;;;;;;;5.30;3.88;;;19.90;99.90;;;;;;5049511;28;20028;-71
2022/07/27 07:22:16;;;;;;;4.00;3.60;;;20.00;99.90;;;;;;5147421;27;20066;-70
2022/07/27 07:24:42;;;;;;;6.88;4.03;;;19.90;99.90;;;;;;5146506;27;20410;-78
2022/07/27 07:27:07;;;;;;;4.68;3.45;;;20.00;99.90;;;;;;5122717;27;20025;-70
2022/07/27 07:29:33;;;;;;;3.70;3.35;;;20.20;99.10;;;;;;5103974;27;20118;-72
2022/07/27 07:31:58;;;;;;;4.57;3.88;;;20.20;95.40;;;;;;5105739;27;20377;-77
2022/07/27 07:34:24;;;;;;;4.93;3.70;;;20.40;95.40;;;;;;5110058;27;20106;-77
2022/07/27 07:36:50;;;;;;;5.55;3.88;;;20.40;94.40;;;;;;5057644;27;20071;-70
2022/07/27 07:39:16;;;;;;;5.55;4.40;;;20.30;90.90;;;;;;5048154;28;20112;-71
2022/07/27 07:41:41;;;;;;;5.80;4.60;;;20.30;91.30;;;;;;5145997;27;20023;-70
2022/07/27 07:44:08;;;;;;;5.90;4.85;;;20.20;91.10;;;;;;5154517;27;20424;-71
2022/07/27 07:46:35;;;;;;;4.72;4.32;;;20.30;95.90;;;;;;5154813;27;20392;-77
2022/07/27 07:49:02;;;;;;;4.35;3.72;;;20.30;99.90;;;;;;5154750;27;20508;-77
2022/07/27 07:51:28;;;;;;;10.32;4.82;;;20.30;99.90;;;;;;5056110;27;20062;-77
2022/07/27 07:53:53;;;;;;;10.88;8.23;;;20.40;99.90;;;;;;5048655;28;20097;-77
2022/07/27 07:56:19;;;;;;;11.48;8.95;;;20.40;99.90;;;;;;5067940;27;20023;-77
2022/07/27 07:58:45;;;;;;;12.15;8.57;;;20.30;99.90;;;;;;5154198;27;20027;-77
2022/07/27 08:01:11;;;;;;;10.43;7.30;;;20.30;99.90;;;;;;5057660;27;20025;-77
2022/07/27 08:03:37;;;;;;;9.30;7.18;;;20.40;99.90;;;;;;5048693;28;20050;-71
2022/07/27 08:06:03;;;;;;;11.15;8.27;;;20.50;99.90;;;;;;5097509;27;20031;-77
2022/07/27 08:08:29;;;;;;;11.85;8.32;;;20.60;99.90;;;;;;5154581;27;20022;-71
2022/07/27 08:10:55;;;;;;;11.73;8.30;;;20.70;99.90;;;;;;5129130;27;20024;-70
2022/07/27 08:13:21;;;;;;;9.13;7.40;;;20.80;99.90;;;;;;5110310;27;20027;-78
2022/07/27 08:15:47;;;;;;;10.00;6.95;;;20.90;99.90;;;;;;5154429;27;20019;-77
2022/07/27 08:18:13;;;;;;;10.18;7.28;;;20.90;99.90;;;;;;5154691;27;20030;-77
2022/07/27 08:20:38;;;;;;;11.82;7.70;;;21.00;99.90;;;;;;5154283;27;20041;-78
2022/07/27 08:23:05;;;;;;;12.90;7.93;;;21.00;99.90;;;;;;5087955;27;20413;-78
2022/07/27 08:25:31;;;;;;;8.82;7.50;;;21.10;99.90;;;;;;5047026;28;20053;-77
2022/07/27 08:27:57;;;;;;;10.07;7.88;;;21.10;99.90;;;;;;5116313;27;20118;-78
2022/07/27 08:30:24;;;;;;;7.85;5.80;;;21.10;99.90;;;;;;5110804;27;20021;-78
2022/07/27 08:33:00;;;;;;;7.38;5.95;;;21.10;99.90;;;;;;5112771;27;20042;-78
2022/07/27 08:35:28;;;;;;;11.48;7.30;;;20.90;98.60;;;;;;5089793;27;20021;-78
2022/07/27 08:37:54;;;;;;;7.88;6.10;;;21.00;98.40;;;;;;5106830;27;20120;-78
2022/07/27 08:40:21;;;;;;;6.60;5.93;;;21.10;99.90;;;;;;5097350;27;20038;-78
2022/07/27 08:42:47;;;;;;;8.98;6.32;;;21.10;97.40;;;;;;5133145;27;20063;-78
2022/07/27 08:45:15;;;;;;;7.80;5.95;;;21.30;99.90;;;;;;5153215;27;20047;-78
2022/07/27 08:47:43;;;;;;;11.82;6.80;;;21.60;99.90;;;;;;5145765;27;20034;-78
2022/07/27 08:50:22;;;;;;;10.82;6.43;;;21.60;97.10;;;;;;5089436;27;20030;-78
2022/07/27 08:53:04;;;;;;;7.10;6.15;;;21.50;95.50;;;;;;5131325;27;20399;-78
2022/07/27 08:55:31;;;;;;;;;;;21.60;94.00;;;;;;5095538;27;20033;-78
2022/07/27 08:57:57;;;;;;;9.18;7.38;;;21.80;94.80;;;;;;5130241;27;19903;-79
2022/07/27 09:00:23;;;;;;;9.50;7.78;;;21.80;96.30;;;;;;5051107;27;20050;-78
2022/07/27 09:02:49;;;;;;;12.25;7.47;;;21.80;97.70;;;;;;5157010;27;20109;-71
2022/07/27 09:05:15;;;;;;;14.90;7.35;;;21.80;98.60;;;;;;5120828;27;20034;-72
2022/07/27 09:07:41;;;;;;;9.80;6.60;;;21.90;99.90;;;;;;5156893;27;20027;-79
2022/07/27 09:10:08;;;;;;;6.82;6.20;;;22.00;95.50;;;;;;5156881;27;20023;-71
2022/07/27 09:12:34;;;;;;;7.55;6.43;;;22.20;90.20;;;;;;5155728;27;20515;-79
2022/07/27 09:15:10;;;;;;;6.82;5.95;;;22.40;89.70;;;;;;5074625;27;20102;-78
2022/07/27 09:17:37;;;;;;;6.57;5.97;;;22.40;82.40;;;;;;5050245;28;20037;-79
2022/07/27 09:20:07;;;;;;;7.13;6.43;;;22.50;80.20;;;;;;5130831;27;20023;-78
2022/07/27 09:22:52;;;;;;;7.65;5.93;;;22.40;82.10;;;;;;5062372;27;20041;-72
2022/07/27 09:25:24;;;;;;;6.93;6.28;;;22.10;79.80;;;;;;5060804;27;20035;-79
2022/07/27 09:27:55;;;;;;;7.40;6.00;;;22.00;83.80;;;;;;5155837;27;20391;-77
2022/07/27 09:30:21;;;;;;;6.50;5.90;;;22.20;88.90;;;;;;5146630;27;20098;-78
2022/07/27 09:33:03;;;;;;;9.80;6.90;;;22.10;85.20;;;;;;5050031;27;20040;-78
2022/07/27 09:35:34;;;;;;;12.60;6.50;;;22.30;85.00;;;;;;5084392;27;20110;-78
2022/07/27 09:38:19;;;;;;;11.93;8.07;;;22.30;84.10;;;;;;5156485;27;20088;-77
2022/07/27 09:40:47;;;;;;;7.47;6.68;;;22.40;85.60;;;;;;5095363;27;20053;-72
2022/07/27 09:43:13;;;;;;;6.90;6.25;;;22.40;83.90;;;;;;5070876;27;20443;-78
2022/07/27 09:45:44;;;;;;;6.28;5.50;;;22.40;82.00;;;;;;5156587;27;20509;-71
2022/07/27 09:48:15;;;;;;;7.60;6.90;;;22.60;82.80;;;;;;5155757;27;20042;-79
2022/07/27 09:51:07;;;;;;;6.25;4.95;;;22.60;82.80;;;;;;5093744;27;20033;-79
2022/07/27 09:53:34;;;;;;;5.93;5.30;;;22.80;78.70;;;;;;5115316;27;20056;-79
2022/07/27 09:56:00;;;;;;;7.63;5.50;;;22.80;75.60;;;;;;5103485;27;20050;-78
2022/07/27 09:58:55;;;;;;;9.95;6.28;;;22.70;75.80;;;;;;5155489;27;20031;-78
2022/07/27 10:01:33;;;;;;;7.35;5.97;;;22.70;80.50;;;;;;5137831;27;20035;-79
2022/07/27 10:04:03;;;;;;;5.32;4.90;;;22.90;78.80;;;;;;5077186;27;20038;-71
2022/07/27 10:06:29;;;;;;;8.77;6.38;;;23.00;75.90;;;;;;5155593;27;20015;-71
2022/07/27 10:08:56;;;;;;;6.45;4.95;;;23.00;77.80;;;;;;5074867;27;20045;-70
2022/07/27 10:11:23;;;;;;;5.80;5.30;;;23.10;78.80;;;;;;5149263;27;20023;-70
2022/07/27 10:13:50;;;;;;;8.18;5.40;;;22.90;74.20;;;;;;5155762;27;20035;-78
2022/07/27 10:16:23;;;;;;;5.85;5.35;;;22.50;74.50;;;;;;5052114;27;20161;-78
2022/07/27 10:19:17;;;;;;;6.55;5.43;;;22.40;79.80;;;;;;5065014;27;20105;-77
2022/07/27 10:21:45;;;;;;;6.95;6.30;;;22.50;82.90;;;;;;5155691;27;20018;-70
2022/07/27 10:24:22;;;;;;;7.32;5.32;;;22.50;85.00;;;;;;5086706;27;20035;-77
2022/07/27 10:26:47;;;;;;;7.28;5.35;;;22.50;77.90;;;;;;5154276;27;20120;-78
2022/07/27 10:29:13;;;;;;;6.10;5.50;;;22.20;78.90;;;;;;5155138;27;20156;-77
2022/07/27 10:31:59;;;;;;;6.50;5.90;;;22.20;80.30;;;;;;5142825;27;20038;-77
2022/07/27 10:34:42;;;;;;;8.30;5.53;;;22.50;84.30;;;;;;5093125;27;20058;-79
2022/07/27 10:37:13;;;;;;;5.65;5.15;;;22.80;79.60;;;;;;5123601;27;20022;-72
2022/07/27 10:39:48;;;;;;;6.25;5.68;;;22.90;77.90;;;;;;5109714;27;20069;-79
2022/07/27 10:42:24;;;;;;;5.43;4.93;;;23.00;76.10;;;;;;5075096;27;20069;-79
2022/07/27 10:44:56;;;;;;;5.53;4.97;;;23.00;74.50;;;;;;5121965;27;20067;-72
2022/07/27 10:47:49;;;;;;;5.13;4.63;;;23.10;75.00;;;;;;5100741;27;20498;-79
2022/07/27 10:50:15;;;;;;;5.57;4.80;;;23.30;72.70;;;;;;5109628;27;20046;-71
2022/07/27 10:52:44;;;;;;;7.20;4.85;;;23.30;71.00;;;;;;5124194;27;20073;-71
2022/07/27 10:55:29;;;;;;;7.78;4.90;;;23.60;69.90;;;;;;5133363;27;20072;-72
2022/07/27 10:58:13;;;;;;;6.07;4.82;;;23.70;68.10;;;;;;5054980;27;20033;-71
2022/07/27 11:00:48;;;;;;;5.53;4.32;;;23.90;68.20;;;;;;5118469;27;20025;-79
2022/07/27 11:03:24;;;;;;;5.50;4.80;;;23.80;68.60;;;;;;5031857;28;20479;-80
2022/07/27 11:06:11;;;;;;;6.03;4.70;;;23.80;68.60;;;;;;5101530;27;20380;-79
2022/07/27 11:08:43;;;;;;;6.85;4.47;;;23.50;66.30;;;;;;5105029;27;20175;-78
2022/07/27 11:11:12;;;;;;;;;;;23.50;65.20;;;;;;5117090;27;20026;-80
2022/07/27 11:13:38;;;;;;;5.00;3.90;;;23.60;64.60;;;;;;5086606;27;19909;-71
2022/07/27 11:16:06;;;;;;;5.40;4.90;;;23.70;64.90;;;;;;5072287;27;20126;-71
2022/07/27 11:18:34;;;;;;;4.43;4.05;;;23.90;68.70;;;;;;5076033;27;20041;-79
2022/07/27 11:21:24;;;;;;;5.55;5.05;;;24.00;64.80;;;;;;5150148;27;20414;-71
2022/07/27 11:23:56;;;;;;;5.07;4.65;;;24.30;64.50;;;;;;5099299;27;20053;-79
2022/07/27 11:26:26;;;;;;;4.72;3.97;;;24.50;66.00;;;;;;5154860;27;20046;-79
2022/07/27 11:28:52;;;;;;;5.88;4.70;;;24.60;64.90;;;;;;5155183;27;20042;-79
2022/07/27 11:31:19;;;;;;;5.07;4.00;;;24.40;63.10;;;;;;5155346;27;20093;-79
2022/07/27 11:33:50;;;;;;;4.90;4.50;;;24.60;64.60;;;;;;5155151;27;20015;-71
2022/07/27 11:36:15;;;;;;;5.30;4.55;;;24.70;66.40;;;;;;5155224;27;20033;-77
2022/07/27 11:38:51;;;;;;;4.63;4.25;;;24.80;66.00;;;;;;5154874;27;20440;-78
2022/07/27 11:41:25;;;;;;;4.50;4.10;;;24.80;63.90;;;;;;5154523;27;20022;-79
2022/07/27 11:43:52;;;;;;;4.40;4.10;;;24.80;65.00;;;;;;5155030;27;20417;-79
2022/07/27 11:46:21;;;;;;;5.22;3.95;;;24.70;63.90;;;;;;5151988;27;20102;-71
2022/07/27 11:49:05;;;;;;;5.15;4.22;;;24.50;62.30;;;;;;5076107;27;20029;-71
2022/07/27 11:51:36;;;;;;;4.57;4.15;;;24.30;63.70;;;;;;5142047;27;20027;-71
2022/07/27 11:54:07;;;;;;;3.70;3.50;;;24.30;64.90;;;;;;5100202;27;20019;-78
2022/07/27 11:56:35;;;;;;;4.90;3.72;;;24.40;64.20;;;;;;5090273;27;20444;-72
2022/07/27 11:59:05;;;;;;;3.20;3.00;;;24.00;63.30;;;;;;5089504;27;20033;-71
2022/07/27 12:01:47;;;;;;;3.92;3.58;;;24.30;64.00;;;;;;5151439;27;20027;-71
2022/07/27 12:04:28;;;;;;;4.45;3.78;;;24.30;63.20;;;;;;5154717;27;20019;-71
2022/07/27 12:06:56;;;;;;;4.32;3.72;;;24.50;63.40;;;;;;5084248;27;20102;-71
2022/07/27 12:09:23;;;;;;;5.07;3.60;;;24.50;63.40;;;;;;5154196;27;20118;-71
2022/07/27 12:12:08;;;;;;;4.60;3.80;;;24.30;61.70;;;;;;5154507;27;20514;-77
2022/07/27 12:14:46;;;;;;;3.15;2.92;;;24.50;63.40;;;;;;5081877;27;20550;-77
2022/07/27 12:17:14;;;;;;;3.40;3.20;;;24.60;61.30;;;;;;5153508;27;20048;-77
2022/07/27 12:19:41;;;;;;;3.28;2.90;;;24.80;59.30;;;;;;5138958;27;20414;-77
2022/07/27 12:22:08;;;;;;;3.88;3.40;;;24.30;58.40;;;;;;5154457;27;20059;-70
2022/07/27 12:24:41;;;;;;;3.10;2.80;;;24.20;59.00;;;;;;5153074;27;20491;-71
2022/07/27 12:27:15;;;;;;;3.20;3.00;;;24.20;60.10;;;;;;5154462;27;20033;-70
2022/07/27 12:30:14;;;;;;;2.90;2.70;;;24.20;62.50;;;;;;5124241;27;20037;-71
2022/07/27 12:32:44;;;;;;;3.50;3.30;;;24.00;61.20;;;;;;5066318;27;20033;-70
2022/07/27 12:35:28;;;;;;;3.85;2.95;;;23.80;60.50;;;;;;5096583;27;20025;-79
2022/07/27 12:38:05;;;;;;;4.50;3.63;;;23.90;60.30;;;;;;5153586;27;20484;-71
2022/07/27 12:40:32;;;;;;;4.28;3.75;;;23.90;61.00;;;;;;5153755;27;20488;-71
2022/07/27 12:43:02;;;;;;;3.55;3.25;;;23.80;61.20;;;;;;5146053;27;20544;-79
2022/07/27 12:45:36;;;;;;;5.63;3.03;;;24.10;60.90;;;;;;5068409;27;20537;-71